sensor_id;sensor_type;location;lat;lon;timestamp;pressure;altitude;pressure_sealevel;temperature;humidity
55664;BME280;41540;57.880;12.164;2022-10-16T00:09:27;98578.47;;;10.23;100.00
55664;BME280;41540;57.880;12.164;2022-10-16T00:19:27;98617.00;;;10.49;100.00
55664;BME280;41540;57.880;12.164;2022-10-16T00:29:28;98668.63;;;10.62;100.00
55664;BME280;41540;57.880;12.164;2022-10-16T00:39:28;98667.84;;;10.55;100.00
55664;BME280;41540;57.880;12.164;2022-10-16T00:49:29;98648.38;;;10.22;100.00
55664;BME280;41540;57.880;12.164;2022-10-16T00:59:32;98707.81;;;10.29;100.00
55664;BME280;41540;57.880;12.164;2022-10-16T01:10:21;98680.75;;;9.74;100.00
55664;BME280;41540;57.880;12.164;2022-10-16T01:40:17;98629.81;;;8.77;100.00
55664;BME280;41540;57.880;12.164;2022-10-16T01:50:20;98658.25;;;8.67;100.00
55664;BME280;41540;57.880;12.164;2022-10-16T02:00:22;98683.22;;;8.66;100.00
55664;BME280;41540;57.880;12.164;2022-10-16T02:10:24;98708.19;;;8.64;100.00
55664;BME280;41540;57.880;12.164;2022-10-16T02:20:28;98752.91;;;8.62;100.00
55664;BME280;41540;57.880;12.164;2022-10-16T02:30:33;98776.16;;;8.68;100.00
55664;BME280;41540;57.880;12.164;2022-10-16T02:40:35;98804.53;;;8.71;100.00
55664;BME280;41540;57.880;12.164;2022-10-16T02:50:36;98677.44;;;7.81;100.00
55664;BME280;41540;57.880;12.164;2022-10-16T03:00:36;98763.31;;;8.25;100.00
55664;BME280;41540;57.880;12.164;2022-10-16T03:10:36;98735.00;;;8.02;100.00
55664;BME280;41540;57.880;12.164;2022-10-16T03:20:37;98710.88;;;8.15;100.00
55664;BME280;41540;57.880;12.164;2022-10-16T03:30:37;98657.63;;;7.88;100.00
55664;BME280;41540;57.880;12.164;2022-10-16T03:40:39;98790.75;;;8.72;100.00
55664;BME280;41540;57.880;12.164;2022-10-16T03:50:40;98736.63;;;8.43;100.00
55664;BME280;41540;57.880;12.164;2022-10-16T04:00:44;98756.41;;;8.36;100.00
55664;BME280;41540;57.880;12.164;2022-10-16T04:10:45;98814.03;;;8.55;100.00
55664;BME280;41540;57.880;12.164;2022-10-16T04:20:45;98769.34;;;8.08;100.00
55664;BME280;41540;57.880;12.164;2022-10-16T04:30:46;98783.97;;;8.03;100.00
55664;BME280;41540;57.880;12.164;2022-10-16T04:40:46;98799.44;;;7.97;100.00
55664;BME280;41540;57.880;12.164;2022-10-16T04:50:47;98757.31;;;7.63;100.00
55664;BME280;41540;57.880;12.164;2022-10-16T05:00:47;98740.16;;;7.65;100.00
55664;BME280;41540;57.880;12.164;2022-10-16T05:10:47;98715.22;;;7.50;100.00
55664;BME280;41540;57.880;12.164;2022-10-16T05:20:48;98783.13;;;7.83;100.00
55664;BME280;41540;57.880;12.164;2022-10-16T05:30:48;98678.28;;;7.18;100.00
55664;BME280;41540;57.880;12.164;2022-10-16T05:40:52;98738.44;;;7.60;100.00
55664;BME280;41540;57.880;12.164;2022-10-16T05:50:58;98772.81;;;7.79;100.00
55664;BME280;41540;57.880;12.164;2022-10-16T06:01:01;98832.09;;;8.12;100.00
55664;BME280;41540;57.880;12.164;2022-10-16T06:11:07;98760.78;;;7.83;100.00
55664;BME280;41540;57.880;12.164;2022-10-16T06:21:14;98796.88;;;8.15;100.00
55664;BME280;41540;57.880;12.164;2022-10-16T06:31:17;98763.28;;;8.31;100.00
55664;BME280;41540;57.880;12.164;2022-10-16T06:41:20;98788.03;;;9.07;100.00
55664;BME280;41540;57.880;12.164;2022-10-16T06:51:22;98810.19;;;9.53;100.00
55664;BME280;41540;57.880;12.164;2022-10-16T07:01:24;98700.28;;;8.93;100.00
55664;BME280;41540;57.880;12.164;2022-10-16T07:11:24;98698.44;;;9.14;100.00
55664;BME280;41540;57.880;12.164;2022-10-16T07:21:26;98772.03;;;9.89;100.00
55664;BME280;41540;57.880;12.164;2022-10-16T07:31:29;98654.47;;;9.25;100.00
55664;BME280;41540;57.880;12.164;2022-10-16T07:41:29;98783.84;;;10.16;100.00
55664;BME280;41540;57.880;12.164;2022-10-16T07:51:30;98731.09;;;10.34;100.00
55664;BME280;41540;57.880;12.164;2022-10-16T08:01:30;98684.97;;;10.67;100.00
55664;BME280;41540;57.880;12.164;2022-10-16T08:11:31;98797.41;;;12.37;100.00
55664;BME280;41540;57.880;12.164;2022-10-16T08:21:32;98872.28;;;11.43;100.00
55664;BME280;41540;57.880;12.164;2022-10-16T08:31:32;98990.84;;;12.06;100.00
55664;BME280;41540;57.880;12.164;2022-10-16T08:51:41;98988.47;;;11.91;100.00
55664;BME280;41540;57.880;12.164;2022-10-16T09:01:45;99099.03;;;12.68;100.00
55664;BME280;41540;57.880;12.164;2022-10-16T09:22:16;99139.13;;;13.12;100.00
55664;BME280;41540;57.880;12.164;2022-10-16T09:32:21;99123.88;;;12.24;100.00
55664;BME280;41540;57.880;12.164;2022-10-16T09:42:27;99110.56;;;11.73;100.00
55664;BME280;41540;57.880;12.164;2022-10-16T09:52:30;99075.50;;;12.17;100.00
55664;BME280;41540;57.880;12.164;2022-10-16T10:02:34;99105.06;;;12.72;100.00
55664;BME280;41540;57.880;12.164;2022-10-16T10:12:45;99117.41;;;13.16;100.00
55664;BME280;41540;57.880;12.164;2022-10-16T10:22:45;99155.84;;;12.94;100.00
55664;BME280;41540;57.880;12.164;2022-10-16T10:43:11;99137.91;;;12.07;100.00
55664;BME280;41540;57.880;12.164;2022-10-16T10:53:35;99148.50;;;11.84;100.00
55664;BME280;41540;57.880;12.164;2022-10-16T11:44:50;98927.72;;;11.35;100.00
55664;BME280;41540;57.880;12.164;2022-10-16T11:55:01;98987.94;;;11.57;100.00
55664;BME280;41540;57.880;12.164;2022-10-16T12:05:24;99015.69;;;11.53;100.00
55664;BME280;41540;57.880;12.164;2022-10-16T13:23:19;99272.09;;;9.94;100.00
55664;BME280;41540;57.880;12.164;2022-10-16T13:33:38;99139.28;;;10.01;100.00
55664;BME280;41540;57.880;12.164;2022-10-16T13:43:43;99122.97;;;9.71;100.00
55664;BME280;41540;57.880;12.164;2022-10-16T13:53:45;99285.03;;;10.42;100.00
55664;BME280;41540;57.880;12.164;2022-10-16T14:03:47;99267.75;;;10.13;100.00
55664;BME280;41540;57.880;12.164;2022-10-16T14:13:48;99297.03;;;10.60;100.00
55664;BME280;41540;57.880;12.164;2022-10-16T14:23:48;99310.03;;;10.00;100.00
55664;BME280;41540;57.880;12.164;2022-10-16T14:33:49;99340.22;;;10.21;100.00
55664;BME280;41540;57.880;12.164;2022-10-16T14:43:54;99246.16;;;9.20;100.00
55664;BME280;41540;57.880;12.164;2022-10-16T14:53:55;99430.88;;;10.42;100.00
55664;BME280;41540;57.880;12.164;2022-10-16T15:03:55;99424.72;;;9.88;100.00
55664;BME280;41540;57.880;12.164;2022-10-16T15:13:56;99410.06;;;9.88;100.00
55664;BME280;41540;57.880;12.164;2022-10-16T15:23:58;99376.25;;;9.24;100.00
55664;BME280;41540;57.880;12.164;2022-10-16T15:34:02;99449.59;;;9.47;100.00
55664;BME280;41540;57.880;12.164;2022-10-16T15:44:06;99491.81;;;9.52;100.00
55664;BME280;41540;57.880;12.164;2022-10-16T15:54:07;99427.00;;;9.08;100.00
55664;BME280;41540;57.880;12.164;2022-10-16T16:04:07;99506.38;;;9.33;100.00
55664;BME280;41540;57.880;12.164;2022-10-16T16:14:10;99525.38;;;9.40;100.00
55664;BME280;41540;57.880;12.164;2022-10-16T16:24:14;99546.13;;;9.54;100.00
55664;BME280;41540;57.880;12.164;2022-10-16T16:34:15;99400.13;;;8.78;100.00
55664;BME280;41540;57.880;12.164;2022-10-16T16:44:17;99483.03;;;9.16;100.00
55664;BME280;41540;57.880;12.164;2022-10-16T16:54:17;99412.06;;;8.64;100.00
55664;BME280;41540;57.880;12.164;2022-10-16T17:04:17;99372.41;;;8.52;100.00
55664;BME280;41540;57.880;12.164;2022-10-16T17:14:19;99303.16;;;7.09;100.00
55664;BME280;41540;57.880;12.164;2022-10-16T17:24:19;99303.22;;;7.13;100.00
55664;BME280;41540;57.880;12.164;2022-10-16T17:34:20;99285.47;;;7.39;100.00
55664;BME280;41540;57.880;12.164;2022-10-16T17:44:20;99239.94;;;7.35;100.00
55664;BME280;41540;57.880;12.164;2022-10-16T17:54:21;99215.19;;;7.54;100.00
55664;BME280;41540;57.880;12.164;2022-10-16T18:04:21;99217.13;;;7.86;100.00
55664;BME280;41540;57.880;12.164;2022-10-16T18:14:22;99281.78;;;8.09;100.00
55664;BME280;41540;57.880;12.164;2022-10-16T18:24:23;99263.69;;;8.05;100.00
55664;BME280;41540;57.880;12.164;2022-10-16T18:34:24;99259.22;;;7.84;100.00
55664;BME280;41540;57.880;12.164;2022-10-16T18:44:26;99093.88;;;6.36;100.00
55664;BME280;41540;57.880;12.164;2022-10-16T18:54:27;99248.38;;;7.23;100.00
55664;BME280;41540;57.880;12.164;2022-10-16T19:04:28;99404.66;;;8.01;100.00
55664;BME280;41540;57.880;12.164;2022-10-16T19:14:28;99492.59;;;8.26;100.00
55664;BME280;41540;57.880;12.164;2022-10-16T19:24:29;99417.25;;;7.72;100.00
55664;BME280;41540;57.880;12.164;2022-10-16T19:34:29;99563.75;;;8.05;100.00
55664;BME280;41540;57.880;12.164;2022-10-16T19:44:30;99712.91;;;8.34;100.00
55664;BME280;41540;57.880;12.164;2022-10-16T19:54:30;99741.00;;;8.12;100.00
55664;BME280;41540;57.880;12.164;2022-10-16T20:04:30;99632.81;;;7.07;100.00
55664;BME280;41540;57.880;12.164;2022-10-16T20:14:31;99720.88;;;7.35;100.00
55664;BME280;41540;57.880;12.164;2022-10-16T20:24:31;99654.75;;;6.85;100.00
55664;BME280;41540;57.880;12.164;2022-10-16T20:34:32;99704.06;;;7.05;100.00
55664;BME280;41540;57.880;12.164;2022-10-16T20:44:35;99731.13;;;6.86;100.00
55664;BME280;41540;57.880;12.164;2022-10-16T20:54:38;99988.16;;;8.30;100.00
55664;BME280;41540;57.880;12.164;2022-10-16T21:04:38;100075.50;;;8.56;100.00
55664;BME280;41540;57.880;12.164;2022-10-16T21:14:39;100145.53;;;8.73;100.00
55664;BME280;41540;57.880;12.164;2022-10-16T21:24:39;100115.53;;;8.34;100.00
55664;BME280;41540;57.880;12.164;2022-10-16T21:34:39;100098.78;;;8.13;100.00
55664;BME280;41540;57.880;12.164;2022-10-16T21:44:40;100195.06;;;8.52;100.00
55664;BME280;41540;57.880;12.164;2022-10-16T21:54:40;100191.09;;;8.27;100.00
55664;BME280;41540;57.880;12.164;2022-10-16T22:04:41;100025.56;;;6.87;100.00
55664;BME280;41540;57.880;12.164;2022-10-16T22:14:44;99981.34;;;6.33;100.00
55664;BME280;41540;57.880;12.164;2022-10-16T22:24:45;100273.66;;;7.89;100.00
55664;BME280;41540;57.880;12.164;2022-10-16T22:34:46;100176.09;;;7.34;100.00
55664;BME280;41540;57.880;12.164;2022-10-16T22:44:46;100329.88;;;8.02;100.00
55664;BME280;41540;57.880;12.164;2022-10-16T22:54:46;100327.56;;;7.78;100.00
55664;BME280;41540;57.880;12.164;2022-10-16T23:04:47;100142.41;;;6.58;100.00
55664;BME280;41540;57.880;12.164;2022-10-16T23:14:47;100260.25;;;7.00;100.00
55664;BME280;41540;57.880;12.164;2022-10-16T23:24:50;100316.56;;;7.18;100.00
55664;BME280;41540;57.880;12.164;2022-10-16T23:34:51;100434.84;;;7.71;100.00
55664;BME280;41540;57.880;12.164;2022-10-16T23:44:51;100272.56;;;6.50;100.00
55664;BME280;41540;57.880;12.164;2022-10-16T23:54:52;100435.78;;;7.13;100.00
